createdAt,value
2022-08-27T00:03:13.538Z,18.13
2022-08-27T00:08:15.488Z,18.08
2022-08-27T00:13:17.982Z,18.11
2022-08-27T00:18:22.731Z,18.13
2022-08-27T00:23:24.776Z,18.14
2022-08-27T00:28:28.680Z,18.14
2022-08-27T00:33:30.772Z,18.16
2022-08-27T00:38:32.659Z,18.15
2022-08-27T00:44:04.672Z,18.11
2022-08-27T00:49:32.626Z,18.03
2022-08-27T00:54:34.803Z,17.95
2022-08-27T00:59:37.097Z,17.92
2022-08-27T01:04:41.561Z,18.04
2022-08-27T01:09:46.173Z,18.01
2022-08-27T01:14:48.140Z,17.96
2022-08-27T01:19:54.720Z,17.82
2022-08-27T01:25:00.208Z,17.86
2022-08-27T01:30:02.764Z,17.90
2022-08-27T01:35:08.150Z,17.86
2022-08-27T01:40:11.244Z,17.95
2022-08-27T01:45:20.083Z,17.90
2022-08-27T01:50:25.814Z,17.96
2022-08-27T01:55:27.864Z,17.87
2022-08-27T02:00:33.838Z,17.90
2022-08-27T02:05:39.326Z,17.91
2022-08-27T02:10:48.419Z,17.92
2022-08-27T02:15:50.393Z,17.92
2022-08-27T02:20:52.403Z,17.86
2022-08-27T02:25:54.290Z,17.96
2022-08-27T02:30:56.203Z,17.92
2022-08-27T02:35:58.098Z,17.90
2022-08-27T02:40:59.973Z,17.87
2022-08-27T02:46:02.982Z,17.84
2022-08-27T02:51:06.293Z,17.88
2022-08-27T02:56:08.283Z,18.00
2022-08-27T03:01:11.156Z,18.07
2022-08-27T03:06:15.728Z,18.11
2022-08-27T03:11:17.632Z,18.12
2022-08-27T03:16:19.992Z,18.11
2022-08-27T03:21:25.992Z,18.17
2022-08-27T03:26:32.022Z,18.12
2022-08-27T03:31:34.453Z,18.07
2022-08-27T03:36:36.345Z,17.97
2022-08-27T03:41:43.859Z,17.96
2022-08-27T03:46:57.216Z,17.99
2022-08-27T03:51:59.121Z,17.98
2022-08-27T03:57:01.030Z,17.98
2022-08-27T04:02:03.321Z,17.98
2022-08-27T04:07:05.380Z,18.04
2022-08-27T04:12:07.473Z,18.07
2022-08-27T04:17:09.336Z,18.07
2022-08-27T04:22:11.212Z,18.03
2022-08-27T04:27:15.210Z,18.02
2022-08-27T04:32:17.295Z,18.03
2022-08-27T04:37:23.278Z,18.01
2022-08-27T04:42:27.671Z,18.00
2022-08-27T04:47:29.688Z,18.01
2022-08-27T04:52:31.548Z,18.01
2022-08-27T04:57:34.979Z,18.09
2022-08-27T05:02:36.906Z,18.11
2022-08-27T05:07:39.145Z,18.05
2022-08-27T05:12:41.009Z,18.01
2022-08-27T05:17:44.221Z,18.10
2022-08-27T05:22:46.804Z,18.11
2022-08-27T05:27:48.725Z,18.17
2022-08-27T05:32:50.601Z,18.18
2022-08-27T05:37:52.502Z,18.20
2022-08-27T05:42:55.657Z,18.21
2022-08-27T05:47:58.783Z,18.25
2022-08-27T05:53:00.670Z,18.26
2022-08-27T05:58:02.542Z,18.17
2022-08-27T06:03:04.536Z,18.10
2022-08-27T06:08:06.947Z,18.19
2022-08-27T06:13:09.057Z,18.25
2022-08-27T06:18:13.660Z,18.30
2022-08-27T06:23:15.571Z,18.36
2022-08-27T06:28:21.463Z,18.36
2022-08-27T06:33:23.343Z,18.29
2022-08-27T06:38:25.263Z,18.35
2022-08-27T06:43:27.294Z,18.44
2022-08-27T06:48:32.064Z,18.40
2022-08-27T06:53:36.407Z,18.60
2022-08-27T06:58:38.440Z,18.92
2022-08-27T07:03:40.932Z,19.00
2022-08-27T07:08:43.802Z,18.96
2022-08-27T07:13:56.426Z,18.79
2022-08-27T07:19:02.359Z,18.53
2022-08-27T07:24:06.707Z,18.47
2022-08-27T07:29:10.512Z,18.39
2022-08-27T07:34:12.444Z,18.36
2022-08-27T07:39:16.799Z,18.39
2022-08-27T07:44:30.986Z,18.30
2022-08-27T07:49:37.741Z,18.31
2022-08-27T07:54:41.151Z,18.37
2022-08-27T07:59:43.372Z,18.39
2022-08-27T08:04:45.602Z,18.43
2022-08-27T08:09:47.498Z,18.47
2022-08-27T08:14:49.527Z,18.62
2022-08-27T08:20:15.752Z,18.58
2022-08-27T08:25:16.842Z,18.59
2022-08-27T08:30:18.804Z,18.60
2022-08-27T08:35:20.986Z,18.68
2022-08-27T08:40:32.312Z,18.71
2022-08-27T08:45:37.244Z,18.83
2022-08-27T08:51:05.759Z,18.85
2022-08-27T08:56:15.457Z,18.81
2022-08-27T09:01:20.906Z,18.91
2022-08-27T09:06:41.454Z,18.92
2022-08-27T09:11:51.611Z,18.90
2022-08-27T09:16:56.588Z,18.85
2022-08-27T09:22:11.069Z,19.02
2022-08-27T09:27:14.982Z,19.13
2022-08-27T09:32:16.919Z,19.38
2022-08-27T09:37:34.039Z,19.68
2022-08-27T09:42:43.246Z,19.61
2022-08-27T09:48:12.908Z,19.36
2022-08-27T09:53:36.000Z,19.22
2022-08-27T09:58:43.843Z,18.94
2022-08-27T10:03:45.818Z,18.96
2022-08-27T10:08:50.610Z,18.81
2022-08-27T10:14:02.313Z,18.94
2022-08-27T10:19:33.164Z,19.26
2022-08-27T10:24:51.995Z,19.59
2022-08-27T10:30:20.558Z,20.25
2022-08-27T10:35:48.069Z,20.60
2022-08-27T10:41:07.521Z,20.77
2022-08-27T10:46:28.393Z,20.54
2022-08-27T10:51:59.634Z,20.17
2022-08-27T10:57:31.423Z,19.85
2022-08-27T11:02:40.195Z,19.60
2022-08-27T11:07:47.787Z,19.31
2022-08-27T11:12:54.199Z,19.36
2022-08-27T11:18:08.281Z,19.45
2022-08-27T11:23:19.454Z,19.25
2022-08-27T11:28:29.986Z,18.99
2022-08-27T11:34:10.340Z,18.91
2022-08-27T11:39:32.706Z,18.85
2022-08-27T11:44:40.983Z,18.92
2022-08-27T11:49:54.540Z,18.87
2022-08-27T11:55:25.177Z,18.97
2022-08-27T12:00:26.970Z,19.13
2022-08-27T12:05:45.109Z,19.10
2022-08-27T12:11:24.465Z,18.88
2022-08-27T12:16:42.034Z,18.66
2022-08-27T12:21:50.056Z,18.58
2022-08-27T12:27:01.688Z,18.35
2022-08-27T12:32:25.319Z,18.36
2022-08-27T12:37:31.510Z,18.50
2022-08-27T12:42:33.623Z,18.56
2022-08-27T12:47:42.669Z,18.80
2022-08-27T12:53:16.542Z,18.90
2022-08-27T12:58:32.610Z,19.01
2022-08-27T13:03:38.537Z,19.12
2022-08-27T13:08:40.391Z,19.24
2022-08-27T13:13:42.274Z,19.21
2022-08-27T13:18:48.656Z,19.11
2022-08-27T13:24:00.677Z,19.19
2022-08-27T13:29:03.992Z,19.24
2022-08-27T13:34:07.176Z,19.34
2022-08-27T13:39:09.250Z,19.44
2022-08-27T13:44:20.484Z,19.41
2022-08-27T13:49:25.690Z,19.63
2022-08-27T13:54:27.946Z,20.29
2022-08-27T13:59:31.126Z,20.90
2022-08-27T14:04:37.905Z,21.11
2022-08-27T14:09:55.138Z,21.36
2022-08-27T14:14:57.963Z,21.51
2022-08-27T14:20:01.791Z,21.73
2022-08-27T14:25:04.339Z,23.20
2022-08-27T14:30:09.312Z,23.43
2022-08-27T14:35:12.116Z,23.31
2022-08-27T14:40:14.854Z,23.47
2022-08-27T14:45:16.852Z,22.63
2022-08-27T14:50:18.803Z,21.55
2022-08-27T14:55:20.795Z,20.35
2022-08-27T15:00:22.682Z,19.70
2022-08-27T15:05:26.376Z,19.09
2022-08-27T15:10:28.353Z,18.75
2022-08-27T15:15:30.269Z,18.58
2022-08-27T15:20:32.605Z,18.43
2022-08-27T15:25:35.187Z,18.39
2022-08-27T15:30:38.035Z,18.35
2022-08-27T15:35:40.007Z,18.46
2022-08-27T15:40:42.022Z,18.50
2022-08-27T15:45:44.476Z,18.51
2022-08-27T15:50:46.472Z,18.61
2022-08-27T15:55:48.672Z,18.49
2022-08-27T16:00:54.621Z,18.47
2022-08-27T16:06:05.312Z,18.50
2022-08-27T16:11:07.191Z,18.43
2022-08-27T16:16:09.229Z,18.44
2022-08-27T16:21:11.151Z,18.31
2022-08-27T16:26:14.100Z,18.15
2022-08-27T16:31:16.032Z,18.16
2022-08-27T16:36:19.774Z,18.17
2022-08-27T16:41:23.092Z,18.22
2022-08-27T16:46:25.467Z,18.28
2022-08-27T16:51:34.953Z,18.20
2022-08-27T16:56:37.914Z,18.23
2022-08-27T17:01:42.009Z,18.38
2022-08-27T17:06:47.818Z,18.39
2022-08-27T17:11:54.952Z,18.37
2022-08-27T17:16:56.813Z,18.33
2022-08-27T17:21:59.912Z,18.23
2022-08-27T17:27:01.917Z,17.81
2022-08-27T17:32:07.098Z,17.69
2022-08-27T17:37:08.982Z,17.64
2022-08-27T17:42:10.819Z,17.65
2022-08-27T17:47:12.752Z,17.63
2022-08-27T17:52:15.492Z,17.64
2022-08-27T17:57:25.692Z,17.59
2022-08-27T18:02:37.272Z,17.51
2022-08-27T18:07:40.660Z,17.47
2022-08-27T18:12:44.101Z,17.43
2022-08-27T18:17:46.034Z,17.44
2022-08-27T18:22:50.028Z,17.39
2022-08-27T18:27:54.656Z,17.39
2022-08-27T18:32:56.537Z,17.41
2022-08-27T18:37:59.001Z,17.44
2022-08-27T18:43:00.855Z,17.44
2022-08-27T18:48:05.794Z,17.45
2022-08-27T18:53:07.716Z,17.50
2022-08-27T18:58:10.420Z,17.47
2022-08-27T19:03:17.862Z,17.46
2022-08-27T19:08:21.943Z,17.46
2022-08-27T19:13:24.051Z,17.46
2022-08-27T19:18:29.012Z,17.50
2022-08-27T19:23:31.312Z,17.55
2022-08-27T19:28:40.252Z,17.53
2022-08-27T19:33:43.202Z,17.53
2022-08-27T19:38:46.002Z,17.58
2022-08-27T19:43:47.883Z,17.56
2022-08-27T19:48:49.769Z,17.60
2022-08-27T19:53:51.636Z,17.54
2022-08-27T19:58:57.619Z,17.58
2022-08-27T20:04:02.001Z,17.58
2022-08-27T20:09:08.476Z,17.54
2022-08-27T20:14:10.436Z,17.54
2022-08-27T20:19:15.654Z,17.55
2022-08-27T20:24:17.733Z,17.53
2022-08-27T20:29:32.301Z,17.57
2022-08-27T20:34:35.044Z,17.61
2022-08-27T20:39:36.998Z,17.64
2022-08-27T20:44:39.030Z,17.58
2022-08-27T20:49:41.671Z,17.39
2022-08-27T20:54:43.584Z,17.32
2022-08-27T21:00:04.003Z,17.30
2022-08-27T21:05:10.748Z,17.27
2022-08-27T21:10:12.630Z,17.19
2022-08-27T21:15:14.612Z,17.19
2022-08-27T21:20:16.572Z,17.09
2022-08-27T21:25:18.584Z,17.04
2022-08-27T21:30:21.563Z,17.10
2022-08-27T21:35:27.827Z,17.10
2022-08-27T21:40:30.321Z,17.07
2022-08-27T21:45:32.195Z,17.08
2022-08-27T21:50:34.096Z,17.04
2022-08-27T21:55:35.961Z,17.05
2022-08-27T22:00:43.123Z,17.03
2022-08-27T22:05:47.265Z,17.05
2022-08-27T22:10:52.907Z,16.96
2022-08-27T22:15:54.816Z,16.98
2022-08-27T22:20:58.868Z,16.98
2022-08-27T22:26:00.744Z,16.93
2022-08-27T22:31:03.297Z,16.94
2022-08-27T22:36:05.468Z,16.93
2022-08-27T22:41:07.372Z,16.98
2022-08-27T22:46:09.660Z,16.94
2022-08-27T22:51:12.135Z,16.90
2022-08-27T22:56:14.125Z,16.88
2022-08-27T23:01:21.382Z,16.89
2022-08-27T23:06:23.261Z,16.89
2022-08-27T23:11:25.150Z,16.89
2022-08-27T23:16:28.222Z,16.93
2022-08-27T23:21:30.252Z,16.93
2022-08-27T23:26:50.631Z,16.87
2022-08-27T23:31:52.937Z,16.76
2022-08-27T23:36:56.247Z,16.66
2022-08-27T23:41:58.190Z,16.61
2022-08-27T23:47:01.183Z,16.60
2022-08-27T23:52:04.167Z,16.65
2022-08-27T23:57:06.041Z,16.62
